Show Low, AZ

4:26 PM MST on October 14, 2019 (GMT -0700)
Show Low Municipal

Weather History for KSOW - September, 2019

Change the Weather History Date:

Saturday, September 21, 2019

  Actual Average Record
Temperature  
Mean Temperature 62 °F -  
Max Temperature 75 °F 74 °F 84 °F (2001)
Min Temperature 50 °F 52 °F 33 °F (2006)
Degree Days  
Heating Degree Days 2    
Growing Degree Days 12 (Base 50)    
Moisture  
Dew Point 26 °F    
Average Humidity 28    
Maximum Humidity 51    
Minimum Humidity 12    
Precipitation  
Precipitation 0.00 in - - ()
Sea Level Pressure  
Sea Level Pressure 30.16 in    
Wind  
Wind Speed 11 mph ()    
Max Wind Speed 23 mph    
Max Gust Speed 31 mph    
Visibility 10.0 miles    
Events      
Averages and records for this station are not official NWS values.
T = Trace of Precipitation, MM = Missing Value Source: Averaged Metar Reports

Daily Weather History Graph

Daily Weather History Graph

Search for Another Location

Airport or City:

Astronomy

Sep. 21, 2019 Rise Set
Actual Time 6:07 AM MST 6:18 PM MST
Civil Twilight 5:42 AM MST 6:43 PM MST
Nautical Twilight 5:12 AM MST 7:12 PM MST
Astronomical Twilight 4:43 AM MST 7:42 PM MST
Moon 11:15 PM MST (9/21) 1:00 PM MST (9/21)
Length of Visible Light 13h 01m
Length of Day
12h 11m
Waning Gibbous, 53% of the Moon is Illuminated
Sep 21
Waning Gibbous
Sep 21
Last Quarter
Sep 28
New
Oct 5
First Quarter
Oct 13
Full

Hourly Weather History & Observations

Time (MST) Temp. Dew Point Humidity Pressure Visibility Wind Dir Wind Speed Gust Speed Precip Events Conditions
12:15 AM 55.4 °F 32.0 °F 41% 30.15 in 10.0 mi South 8.1 mph - N/A   Clear
12:35 AM 55.4 °F 32.0 °F 41% 30.15 in 10.0 mi South 9.2 mph - N/A   Clear
12:55 AM 55.4 °F 32.0 °F 41% 30.15 in 10.0 mi South 8.1 mph - N/A   Clear
1:15 AM 53.6 °F 32.0 °F 44% 30.15 in 10.0 mi South 6.9 mph - N/A   Clear
1:35 AM 55.4 °F 32.0 °F 41% 30.15 in 10.0 mi South 9.2 mph - N/A   Clear
1:55 AM 55.4 °F 32.0 °F 41% 30.15 in 10.0 mi South 9.2 mph - N/A   Clear
2:15 AM 55.4 °F 32.0 °F 41% 30.15 in 10.0 mi South 9.2 mph - N/A   Clear
2:35 AM 55.4 °F 32.0 °F 41% 30.15 in 10.0 mi South 6.9 mph - N/A   Clear
2:55 AM 55.4 °F 32.0 °F 41% 30.15 in 10.0 mi South 6.9 mph - N/A   Clear
3:15 AM 53.6 °F 32.0 °F 44% 30.15 in 10.0 mi South 4.6 mph - N/A   Clear
3:35 AM 53.6 °F 32.0 °F 44% 30.15 in 10.0 mi South 6.9 mph - N/A   Clear
3:55 AM 51.8 °F 32.0 °F 47% 30.15 in 10.0 mi South 6.9 mph - N/A   Clear
4:15 AM 55.4 °F 33.8 °F 44% 30.15 in 10.0 mi South 8.1 mph - N/A   Clear
4:35 AM 57.2 °F 35.6 °F 44% 30.15 in 10.0 mi South 10.4 mph - N/A   Clear
4:55 AM 55.4 °F 35.6 °F 47% 30.15 in 10.0 mi South 10.4 mph - N/A   Clear
5:15 AM 55.4 °F 35.6 °F 47% 30.16 in 10.0 mi South 8.1 mph - N/A   Clear
5:55 AM 53.6 °F 35.6 °F 51% 30.16 in 10.0 mi South 10.4 mph - N/A   Clear
6:15 AM 53.6 °F 35.6 °F 51% 30.16 in 10.0 mi South 10.4 mph - N/A   Clear
6:35 AM 53.6 °F 35.6 °F 51% 30.17 in 10.0 mi South 9.2 mph - N/A   Clear
6:55 AM 55.4 °F 35.6 °F 47% 30.17 in 10.0 mi South 8.1 mph - N/A   Clear
7:15 AM 57.2 °F 37.4 °F 48% 30.18 in 10.0 mi South 10.4 mph - N/A   Clear
7:35 AM 60.8 °F 37.4 °F 42% 30.18 in 10.0 mi South 11.5 mph - N/A   Clear
7:55 AM 64.4 °F 37.4 °F 37% 30.18 in 10.0 mi South 13.8 mph - N/A   Clear
8:15 AM 64.4 °F 39.2 °F 40% 30.18 in 10.0 mi SSW 17.3 mph - N/A   Clear
8:35 AM 64.4 °F 37.4 °F 37% 30.18 in 10.0 mi SSW 15.0 mph 21.9 mph N/A   Clear
8:55 AM 66.2 °F 32.0 °F 28% 30.19 in 10.0 mi SSW 18.4 mph - N/A   Clear
9:15 AM 68.0 °F 23.0 °F 18% 30.18 in 10.0 mi SSW 21.9 mph 27.6 mph N/A   Clear
9:35 AM 68.0 °F 24.8 °F 20% 30.19 in 10.0 mi SSW 20.7 mph - N/A   Clear
9:55 AM 68.0 °F 23.0 °F 18% 30.19 in 10.0 mi SSW 20.7 mph 28.8 mph N/A   Clear
10:15 AM 69.8 °F 23.0 °F 17% 30.20 in 10.0 mi SSW 17.3 mph - N/A   Clear
10:35 AM 69.8 °F 23.0 °F 17% 30.20 in 10.0 mi SW 17.3 mph 24.2 mph N/A   Clear
10:55 AM 69.8 °F 21.2 °F 16% 30.19 in 10.0 mi SSW 17.3 mph 24.2 mph N/A   Clear
11:15 AM 71.6 °F 21.2 °F 15% 30.19 in 10.0 mi SW 18.4 mph 28.8 mph N/A   Clear
11:35 AM 71.6 °F 23.0 °F 16% 30.18 in 10.0 mi South 20.7 mph 27.6 mph N/A   Clear
11:55 AM 73.4 °F 21.2 °F 14% 30.17 in 10.0 mi SW 17.3 mph 24.2 mph N/A   Clear
12:15 PM 73.4 °F 21.2 °F 14% 30.17 in 10.0 mi SW 17.3 mph 25.3 mph N/A   Clear
12:35 PM 73.4 °F 23.0 °F 15% 30.16 in 10.0 mi SSW 16.1 mph 31.1 mph N/A   Clear
12:55 PM 73.4 °F 24.8 °F 16% 30.16 in 10.0 mi SSW 12.7 mph 25.3 mph N/A   Clear
1:15 PM 73.4 °F 24.8 °F 16% 30.15 in 10.0 mi SSW 16.1 mph 24.2 mph N/A   Clear
1:35 PM 73.4 °F 21.2 °F 14% 30.14 in 10.0 mi SW 17.3 mph 31.1 mph N/A   Clear
1:55 PM 75.2 °F 21.2 °F 13% 30.14 in 10.0 mi SW 15.0 mph 28.8 mph N/A   Clear
2:15 PM 75.2 °F 23.0 °F 14% 30.13 in 10.0 mi SW 19.6 mph - N/A   Clear
2:35 PM 75.2 °F 23.0 °F 14% 30.12 in 10.0 mi SSW 19.6 mph - N/A   Clear
2:55 PM 75.2 °F 21.2 °F 13% 30.12 in 10.0 mi SW 21.9 mph - N/A   Clear
3:15 PM 75.2 °F 21.2 °F 13% 30.11 in 10.0 mi WSW 18.4 mph 27.6 mph N/A   Clear
3:35 PM 75.2 °F 21.2 °F 13% 30.11 in 10.0 mi WSW 21.9 mph - N/A   Clear
3:55 PM 75.2 °F 19.4 °F 12% 30.11 in 10.0 mi SW 23.0 mph - N/A   Clear
4:15 PM 73.4 °F 21.2 °F 14% 30.11 in 10.0 mi SW 17.3 mph 26.5 mph N/A   Clear
4:35 PM 73.4 °F 17.6 °F 12% 30.11 in 10.0 mi SW 20.7 mph 26.5 mph N/A   Clear
4:55 PM 71.6 °F 15.8 °F 12% 30.11 in 10.0 mi SW 19.6 mph 26.5 mph N/A   Clear
5:15 PM 71.6 °F 19.4 °F 14% 30.11 in 10.0 mi SW 15.0 mph 25.3 mph N/A   Clear
5:35 PM 69.8 °F 19.4 °F 15% 30.12 in 10.0 mi SW 11.5 mph 21.9 mph N/A   Clear
5:55 PM 69.8 °F 19.4 °F 15% 30.13 in 10.0 mi SW 17.3 mph 24.2 mph N/A   Clear
6:15 PM 68.0 °F 21.2 °F 17% 30.14 in 10.0 mi SW 11.5 mph 18.4 mph N/A   Clear
6:35 PM 64.4 °F 21.2 °F 19% 30.14 in 10.0 mi WSW 10.4 mph - N/A   Clear
6:55 PM 62.6 °F 21.2 °F 20% 30.15 in 10.0 mi WSW 11.5 mph - N/A   Clear
7:15 PM 62.6 °F 21.2 °F 20% 30.15 in 10.0 mi WSW 11.5 mph - N/A   Clear
7:35 PM 62.6 °F 21.2 °F 20% 30.16 in 10.0 mi WSW 9.2 mph - N/A   Clear
7:55 PM 59.0 °F 21.2 °F 23% 30.17 in 10.0 mi WSW 9.2 mph - N/A   Clear
8:15 PM 59.0 °F 21.2 °F 23% 30.18 in 10.0 mi SW 6.9 mph - N/A   Clear
8:35 PM 57.2 °F 21.2 °F 25% 30.18 in 10.0 mi South 5.8 mph - N/A   Clear
8:55 PM 55.4 °F 21.2 °F 26% 30.19 in 10.0 mi South 5.8 mph - N/A   Clear
9:15 PM 53.6 °F 21.2 °F 28% 30.20 in 10.0 mi South 5.8 mph - N/A   Clear
9:35 PM 53.6 °F 21.2 °F 28% 30.21 in 10.0 mi South 5.8 mph - N/A   Clear
9:55 PM 53.6 °F 21.2 °F 28% 30.20 in 10.0 mi South 6.9 mph - N/A   Clear
10:15 PM 51.8 °F 21.2 °F 30% 30.21 in 10.0 mi SSE 6.9 mph - N/A   Clear
10:35 PM 50.0 °F 21.2 °F 32% 30.21 in 10.0 mi South 8.1 mph - N/A   Clear
10:55 PM 53.6 °F 23.0 °F 30% 30.21 in 10.0 mi South 9.2 mph - N/A   Clear
11:15 PM 51.8 °F 23.0 °F 33% 30.21 in 10.0 mi South 8.1 mph - N/A   Clear
11:35 PM 51.8 °F 23.0 °F 33% 30.21 in 10.0 mi South 6.9 mph - N/A   Clear
11:55 PM 51.8 °F 23.0 °F 33% 30.21 in 10.0 mi South 5.8 mph - N/A   Clear